sensor_id;sensor_type;location;lat;lon;timestamp;P1;durP1;ratioP1;P2;durP2;ratioP2
74900;SDS011;63461;51.416;6.758;2022-11-15T00:00:31;14.23;;;6.57;;
74900;SDS011;63461;51.416;6.758;2022-11-15T00:03:17;11.40;;;6.23;;
74900;SDS011;63461;51.416;6.758;2022-11-15T00:06:03;14.07;;;7.13;;
74900;SDS011;63461;51.416;6.758;2022-11-15T00:08:48;12.57;;;6.90;;
74900;SDS011;63461;51.416;6.758;2022-11-15T00:11:32;13.83;;;7.47;;
74900;SDS011;63461;51.416;6.758;2022-11-15T00:14:17;13.93;;;6.17;;
74900;SDS011;63461;51.416;6.758;2022-11-15T00:17:01;12.17;;;6.57;;
74900;SDS011;63461;51.416;6.758;2022-11-15T00:19:45;15.27;;;7.53;;
74900;SDS011;63461;51.416;6.758;2022-11-15T00:22:32;11.83;;;6.27;;
74900;SDS011;63461;51.416;6.758;2022-11-15T00:25:17;15.87;;;7.43;;
74900;SDS011;63461;51.416;6.758;2022-11-15T00:28:01;13.53;;;6.30;;
74900;SDS011;63461;51.416;6.758;2022-11-15T00:30:46;13.37;;;6.17;;
74900;SDS011;63461;51.416;6.758;2022-11-15T00:33:30;14.17;;;6.77;;
74900;SDS011;63461;51.416;6.758;2022-11-15T00:36:15;12.10;;;6.00;;
74900;SDS011;63461;51.416;6.758;2022-11-15T00:38:59;15.57;;;6.87;;
74900;SDS011;63461;51.416;6.758;2022-11-15T00:41:43;12.13;;;6.40;;
74900;SDS011;63461;51.416;6.758;2022-11-15T00:44:28;10.40;;;6.03;;
74900;SDS011;63461;51.416;6.758;2022-11-15T00:47:12;10.87;;;6.10;;
74900;SDS011;63461;51.416;6.758;2022-11-15T00:49:57;11.23;;;5.80;;
74900;SDS011;63461;51.416;6.758;2022-11-15T00:52:42;12.27;;;6.37;;
74900;SDS011;63461;51.416;6.758;2022-11-15T00:55:26;10.27;;;6.17;;
74900;SDS011;63461;51.416;6.758;2022-11-15T00:58:10;11.90;;;6.10;;
74900;SDS011;63461;51.416;6.758;2022-11-15T01:00:55;12.30;;;6.50;;
74900;SDS011;63461;51.416;6.758;2022-11-15T01:03:39;12.67;;;6.47;;
74900;SDS011;63461;51.416;6.758;2022-11-15T01:06:24;10.97;;;6.40;;
74900;SDS011;63461;51.416;6.758;2022-11-15T01:09:08;12.03;;;6.03;;
74900;SDS011;63461;51.416;6.758;2022-11-15T01:11:53;11.40;;;5.80;;
74900;SDS011;63461;51.416;6.758;2022-11-15T01:14:37;12.70;;;6.10;;
74900;SDS011;63461;51.416;6.758;2022-11-15T01:17:21;11.43;;;6.33;;
74900;SDS011;63461;51.416;6.758;2022-11-15T01:20:06;10.73;;;5.90;;
74900;SDS011;63461;51.416;6.758;2022-11-15T01:22:51;13.60;;;5.80;;
74900;SDS011;63461;51.416;6.758;2022-11-15T01:25:35;12.97;;;5.73;;
74900;SDS011;63461;51.416;6.758;2022-11-15T01:28:19;13.47;;;6.73;;
74900;SDS011;63461;51.416;6.758;2022-11-15T01:31:06;13.87;;;6.17;;
74900;SDS011;63461;51.416;6.758;2022-11-15T01:33:55;12.60;;;6.50;;
74900;SDS011;63461;51.416;6.758;2022-11-15T01:36:39;12.50;;;5.57;;
74900;SDS011;63461;51.416;6.758;2022-11-15T01:39:24;11.87;;;6.43;;
74900;SDS011;63461;51.416;6.758;2022-11-15T01:42:11;13.57;;;6.17;;
74900;SDS011;63461;51.416;6.758;2022-11-15T01:45:00;13.53;;;6.23;;
74900;SDS011;63461;51.416;6.758;2022-11-15T01:47:46;12.90;;;6.47;;
74900;SDS011;63461;51.416;6.758;2022-11-15T01:50:35;12.73;;;6.50;;
74900;SDS011;63461;51.416;6.758;2022-11-15T01:53:19;11.53;;;6.33;;
74900;SDS011;63461;51.416;6.758;2022-11-15T01:56:07;11.00;;;5.77;;
74900;SDS011;63461;51.416;6.758;2022-11-15T01:58:55;13.07;;;6.43;;
74900;SDS011;63461;51.416;6.758;2022-11-15T02:01:42;12.80;;;6.30;;
74900;SDS011;63461;51.416;6.758;2022-11-15T02:04:34;12.90;;;6.10;;
74900;SDS011;63461;51.416;6.758;2022-11-15T02:07:23;12.13;;;6.53;;
74900;SDS011;63461;51.416;6.758;2022-11-15T02:10:09;11.67;;;5.93;;
74900;SDS011;63461;51.416;6.758;2022-11-15T02:12:56;11.53;;;6.30;;
74900;SDS011;63461;51.416;6.758;2022-11-15T02:15:47;10.07;;;5.83;;
74900;SDS011;63461;51.416;6.758;2022-11-15T02:18:45;15.03;;;6.10;;
74900;SDS011;63461;51.416;6.758;2022-11-15T02:25:01;12.53;;;6.63;;
74900;SDS011;63461;51.416;6.758;2022-11-15T02:40:49;13.70;;;5.77;;
74900;SDS011;63461;51.416;6.758;2022-11-15T02:43:45;12.67;;;5.53;;
74900;SDS011;63461;51.416;6.758;2022-11-15T02:46:47;12.40;;;5.97;;
74900;SDS011;63461;51.416;6.758;2022-11-15T02:49:52;10.87;;;5.97;;
74900;SDS011;63461;51.416;6.758;2022-11-15T02:52:40;13.13;;;6.20;;
74900;SDS011;63461;51.416;6.758;2022-11-15T02:55:29;14.67;;;6.20;;
74900;SDS011;63461;51.416;6.758;2022-11-15T03:01:49;12.40;;;5.90;;
74900;SDS011;63461;51.416;6.758;2022-11-15T03:04:48;13.77;;;6.20;;
74900;SDS011;63461;51.416;6.758;2022-11-15T03:07:51;11.43;;;6.30;;
74900;SDS011;63461;51.416;6.758;2022-11-15T03:16:48;12.80;;;6.73;;
74900;SDS011;63461;51.416;6.758;2022-11-15T03:19:49;14.60;;;5.97;;
74900;SDS011;63461;51.416;6.758;2022-11-15T03:22:37;13.57;;;6.20;;
74900;SDS011;63461;51.416;6.758;2022-11-15T03:25:26;11.63;;;6.30;;
74900;SDS011;63461;51.416;6.758;2022-11-15T03:28:13;12.03;;;6.07;;
74900;SDS011;63461;51.416;6.758;2022-11-15T03:31:01;11.83;;;6.60;;
74900;SDS011;63461;51.416;6.758;2022-11-15T03:34:09;14.23;;;6.60;;
74900;SDS011;63461;51.416;6.758;2022-11-15T03:36:59;11.27;;;6.33;;
74900;SDS011;63461;51.416;6.758;2022-11-15T03:39:43;11.00;;;6.23;;
74900;SDS011;63461;51.416;6.758;2022-11-15T03:42:30;12.10;;;6.20;;
74900;SDS011;63461;51.416;6.758;2022-11-15T03:45:37;15.40;;;6.90;;
74900;SDS011;63461;51.416;6.758;2022-11-15T03:48:28;11.57;;;6.27;;
74900;SDS011;63461;51.416;6.758;2022-11-15T03:51:17;11.83;;;6.00;;
74900;SDS011;63461;51.416;6.758;2022-11-15T03:54:03;14.73;;;6.63;;
74900;SDS011;63461;51.416;6.758;2022-11-15T03:56:48;13.13;;;6.07;;
74900;SDS011;63461;51.416;6.758;2022-11-15T03:59:32;13.07;;;6.20;;
74900;SDS011;63461;51.416;6.758;2022-11-15T04:02:16;12.27;;;6.03;;
74900;SDS011;63461;51.416;6.758;2022-11-15T04:05:01;14.40;;;6.50;;
74900;SDS011;63461;51.416;6.758;2022-11-15T04:07:45;10.30;;;5.70;;
74900;SDS011;63461;51.416;6.758;2022-11-15T04:10:30;9.50;;;5.67;;
74900;SDS011;63461;51.416;6.758;2022-11-15T04:13:14;9.67;;;5.43;;
74900;SDS011;63461;51.416;6.758;2022-11-15T04:15:58;10.80;;;5.83;;
74900;SDS011;63461;51.416;6.758;2022-11-15T04:18:42;11.97;;;5.73;;
74900;SDS011;63461;51.416;6.758;2022-11-15T04:21:27;10.53;;;5.57;;
74900;SDS011;63461;51.416;6.758;2022-11-15T04:24:30;15.50;;;5.27;;
74900;SDS011;63461;51.416;6.758;2022-11-15T04:27:14;9.97;;;5.43;;
74900;SDS011;63461;51.416;6.758;2022-11-15T04:29:58;7.80;;;4.93;;
74900;SDS011;63461;51.416;6.758;2022-11-15T04:32:43;12.80;;;5.53;;
74900;SDS011;63461;51.416;6.758;2022-11-15T04:35:27;10.13;;;5.53;;
74900;SDS011;63461;51.416;6.758;2022-11-15T04:38:12;10.93;;;5.20;;
74900;SDS011;63461;51.416;6.758;2022-11-15T04:40:56;10.13;;;4.93;;
74900;SDS011;63461;51.416;6.758;2022-11-15T04:43:40;10.47;;;4.80;;
74900;SDS011;63461;51.416;6.758;2022-11-15T04:46:25;11.77;;;5.10;;
74900;SDS011;63461;51.416;6.758;2022-11-15T04:49:09;7.27;;;4.67;;
74900;SDS011;63461;51.416;6.758;2022-11-15T04:51:53;9.87;;;4.87;;
74900;SDS011;63461;51.416;6.758;2022-11-15T04:54:38;7.80;;;4.43;;
74900;SDS011;63461;51.416;6.758;2022-11-15T04:57:22;9.17;;;4.63;;
74900;SDS011;63461;51.416;6.758;2022-11-15T05:00:11;9.83;;;4.97;;
74900;SDS011;63461;51.416;6.758;2022-11-15T05:02:57;9.03;;;4.53;;
74900;SDS011;63461;51.416;6.758;2022-11-15T05:06:01;8.63;;;4.60;;
74900;SDS011;63461;51.416;6.758;2022-11-15T05:08:45;9.93;;;4.50;;
74900;SDS011;63461;51.416;6.758;2022-11-15T05:11:30;8.20;;;4.40;;
74900;SDS011;63461;51.416;6.758;2022-11-15T05:14:14;7.73;;;4.53;;
74900;SDS011;63461;51.416;6.758;2022-11-15T05:16:59;9.17;;;4.70;;
74900;SDS011;63461;51.416;6.758;2022-11-15T05:19:44;8.40;;;4.50;;
74900;SDS011;63461;51.416;6.758;2022-11-15T05:22:28;7.83;;;4.50;;
74900;SDS011;63461;51.416;6.758;2022-11-15T05:25:12;6.57;;;4.13;;
74900;SDS011;63461;51.416;6.758;2022-11-15T05:27:56;10.03;;;4.30;;
74900;SDS011;63461;51.416;6.758;2022-11-15T05:30:40;8.63;;;4.27;;
74900;SDS011;63461;51.416;6.758;2022-11-15T05:33:24;5.90;;;3.83;;
74900;SDS011;63461;51.416;6.758;2022-11-15T05:36:20;9.40;;;4.33;;
74900;SDS011;63461;51.416;6.758;2022-11-15T05:39:06;8.23;;;4.17;;
74900;SDS011;63461;51.416;6.758;2022-11-15T05:41:52;8.03;;;4.77;;
74900;SDS011;63461;51.416;6.758;2022-11-15T05:44:41;8.97;;;4.67;;
74900;SDS011;63461;51.416;6.758;2022-11-15T05:47:29;7.83;;;4.53;;
74900;SDS011;63461;51.416;6.758;2022-11-15T05:50:14;9.07;;;4.57;;
74900;SDS011;63461;51.416;6.758;2022-11-15T05:53:00;9.07;;;4.70;;
74900;SDS011;63461;51.416;6.758;2022-11-15T05:55:45;8.07;;;4.80;;
74900;SDS011;63461;51.416;6.758;2022-11-15T05:58:31;7.40;;;4.60;;
74900;SDS011;63461;51.416;6.758;2022-11-15T06:01:16;9.47;;;5.50;;
74900;SDS011;63461;51.416;6.758;2022-11-15T06:04:00;11.47;;;5.50;;
74900;SDS011;63461;51.416;6.758;2022-11-15T06:06:44;8.90;;;4.70;;
74900;SDS011;63461;51.416;6.758;2022-11-15T06:09:29;10.27;;;5.70;;
74900;SDS011;63461;51.416;6.758;2022-11-15T06:12:13;8.40;;;4.60;;
74900;SDS011;63461;51.416;6.758;2022-11-15T06:14:58;10.07;;;4.83;;
74900;SDS011;63461;51.416;6.758;2022-11-15T06:17:42;7.47;;;4.70;;
74900;SDS011;63461;51.416;6.758;2022-11-15T06:20:26;9.57;;;5.10;;
74900;SDS011;63461;51.416;6.758;2022-11-15T06:23:12;9.13;;;5.37;;
74900;SDS011;63461;51.416;6.758;2022-11-15T06:26:00;7.97;;;4.90;;
74900;SDS011;63461;51.416;6.758;2022-11-15T06:28:45;10.67;;;5.50;;
74900;SDS011;63461;51.416;6.758;2022-11-15T06:31:29;9.00;;;5.03;;
74900;SDS011;63461;51.416;6.758;2022-11-15T06:34:14;9.70;;;5.50;;
74900;SDS011;63461;51.416;6.758;2022-11-15T06:36:58;8.57;;;5.07;;
74900;SDS011;63461;51.416;6.758;2022-11-15T06:39:42;10.07;;;5.53;;
74900;SDS011;63461;51.416;6.758;2022-11-15T06:42:33;10.20;;;4.93;;
74900;SDS011;63461;51.416;6.758;2022-11-15T06:45:17;8.10;;;4.90;;
74900;SDS011;63461;51.416;6.758;2022-11-15T06:48:01;7.73;;;4.53;;
74900;SDS011;63461;51.416;6.758;2022-11-15T06:50:52;10.07;;;4.83;;
74900;SDS011;63461;51.416;6.758;2022-11-15T06:53:38;9.67;;;4.60;;
74900;SDS011;63461;51.416;6.758;2022-11-15T06:56:22;8.40;;;4.73;;
74900;SDS011;63461;51.416;6.758;2022-11-15T06:59:06;10.13;;;4.73;;
74900;SDS011;63461;51.416;6.758;2022-11-15T07:01:51;9.03;;;4.90;;
74900;SDS011;63461;51.416;6.758;2022-11-15T07:04:35;10.77;;;4.83;;
74900;SDS011;63461;51.416;6.758;2022-11-15T07:07:20;10.53;;;4.90;;
74900;SDS011;63461;51.416;6.758;2022-11-15T07:10:04;9.30;;;4.63;;
74900;SDS011;63461;51.416;6.758;2022-11-15T07:12:49;10.43;;;4.73;;
74900;SDS011;63461;51.416;6.758;2022-11-15T07:15:33;11.20;;;5.07;;
74900;SDS011;63461;51.416;6.758;2022-11-15T07:18:17;8.43;;;5.17;;
74900;SDS011;63461;51.416;6.758;2022-11-15T07:21:05;9.63;;;4.50;;
74900;SDS011;63461;51.416;6.758;2022-11-15T07:23:51;9.63;;;4.27;;
74900;SDS011;63461;51.416;6.758;2022-11-15T07:26:36;8.13;;;4.33;;
74900;SDS011;63461;51.416;6.758;2022-11-15T07:29:20;6.53;;;4.07;;
74900;SDS011;63461;51.416;6.758;2022-11-15T07:32:05;8.23;;;4.03;;
74900;SDS011;63461;51.416;6.758;2022-11-15T07:34:49;7.60;;;4.23;;
74900;SDS011;63461;51.416;6.758;2022-11-15T07:37:33;10.40;;;4.10;;
74900;SDS011;63461;51.416;6.758;2022-11-15T07:40:18;5.80;;;3.60;;
74900;SDS011;63461;51.416;6.758;2022-11-15T07:43:03;6.73;;;3.90;;
74900;SDS011;63461;51.416;6.758;2022-11-15T07:45:49;6.20;;;3.97;;
74900;SDS011;63461;51.416;6.758;2022-11-15T07:48:33;6.33;;;3.43;;
74900;SDS011;63461;51.416;6.758;2022-11-15T07:51:18;6.90;;;3.27;;
74900;SDS011;63461;51.416;6.758;2022-11-15T07:54:02;3.23;;;2.30;;
74900;SDS011;63461;51.416;6.758;2022-11-15T07:56:46;8.40;;;2.00;;
74900;SDS011;63461;51.416;6.758;2022-11-15T07:59:30;3.30;;;1.73;;
74900;SDS011;63461;51.416;6.758;2022-11-15T08:02:15;3.60;;;1.60;;
74900;SDS011;63461;51.416;6.758;2022-11-15T08:05:01;2.47;;;1.20;;
74900;SDS011;63461;51.416;6.758;2022-11-15T08:07:46;3.37;;;1.50;;
74900;SDS011;63461;51.416;6.758;2022-11-15T08:10:30;3.83;;;1.67;;
74900;SDS011;63461;51.416;6.758;2022-11-15T08:13:15;3.87;;;2.60;;
74900;SDS011;63461;51.416;6.758;2022-11-15T08:16:00;6.57;;;3.00;;
74900;SDS011;63461;51.416;6.758;2022-11-15T08:18:46;6.37;;;2.70;;
74900;SDS011;63461;51.416;6.758;2022-11-15T08:21:31;5.93;;;2.37;;
74900;SDS011;63461;51.416;6.758;2022-11-15T08:24:15;5.43;;;2.27;;
74900;SDS011;63461;51.416;6.758;2022-11-15T08:26:59;2.33;;;1.43;;
74900;SDS011;63461;51.416;6.758;2022-11-15T08:29:44;5.27;;;2.00;;
74900;SDS011;63461;51.416;6.758;2022-11-15T08:32:30;3.40;;;1.40;;
74900;SDS011;63461;51.416;6.758;2022-11-15T08:35:15;3.13;;;1.30;;
74900;SDS011;63461;51.416;6.758;2022-11-15T08:38:00;2.73;;;1.10;;
74900;SDS011;63461;51.416;6.758;2022-11-15T08:40:44;4.83;;;1.20;;
74900;SDS011;63461;51.416;6.758;2022-11-15T08:43:29;3.57;;;1.40;;
74900;SDS011;63461;51.416;6.758;2022-11-15T08:46:14;2.37;;;1.17;;
74900;SDS011;63461;51.416;6.758;2022-11-15T08:48:58;3.67;;;1.30;;
74900;SDS011;63461;51.416;6.758;2022-11-15T08:51:44;1.70;;;1.17;;
74900;SDS011;63461;51.416;6.758;2022-11-15T08:54:29;3.83;;;1.30;;
74900;SDS011;63461;51.416;6.758;2022-11-15T08:57:13;2.50;;;1.50;;
74900;SDS011;63461;51.416;6.758;2022-11-15T08:59:57;2.70;;;1.30;;
74900;SDS011;63461;51.416;6.758;2022-11-15T09:02:41;8.20;;;1.30;;
74900;SDS011;63461;51.416;6.758;2022-11-15T09:05:26;3.43;;;1.07;;
74900;SDS011;63461;51.416;6.758;2022-11-15T09:08:10;2.70;;;1.20;;
74900;SDS011;63461;51.416;6.758;2022-11-15T09:10:56;1.90;;;1.30;;
74900;SDS011;63461;51.416;6.758;2022-11-15T09:13:40;2.93;;;1.53;;
74900;SDS011;63461;51.416;6.758;2022-11-15T09:16:25;3.97;;;1.83;;
74900;SDS011;63461;51.416;6.758;2022-11-15T09:19:09;4.40;;;1.37;;
74900;SDS011;63461;51.416;6.758;2022-11-15T09:21:54;3.27;;;1.90;;
74900;SDS011;63461;51.416;6.758;2022-11-15T09:24:39;2.83;;;1.77;;
74900;SDS011;63461;51.416;6.758;2022-11-15T09:27:26;4.23;;;2.20;;
74900;SDS011;63461;51.416;6.758;2022-11-15T09:30:12;6.43;;;2.30;;
74900;SDS011;63461;51.416;6.758;2022-11-15T09:32:57;6.47;;;2.27;;
74900;SDS011;63461;51.416;6.758;2022-11-15T09:35:41;4.50;;;2.37;;
74900;SDS011;63461;51.416;6.758;2022-11-15T09:38:26;4.17;;;2.60;;
74900;SDS011;63461;51.416;6.758;2022-11-15T09:44:07;6.13;;;2.60;;
74900;SDS011;63461;51.416;6.758;2022-11-15T09:53:15;6.83;;;2.43;;
74900;SDS011;63461;51.416;6.758;2022-11-15T09:56:02;4.10;;;2.40;;
74900;SDS011;63461;51.416;6.758;2022-11-15T10:01:36;4.27;;;2.30;;
74900;SDS011;63461;51.416;6.758;2022-11-15T10:04:12;5.03;;;2.00;;
74900;SDS011;63461;51.416;6.758;2022-11-15T10:06:40;6.57;;;2.30;;
74900;SDS011;63461;51.416;6.758;2022-11-15T10:09:15;2.87;;;1.40;;
74900;SDS011;63461;51.416;6.758;2022-11-15T10:11:46;5.13;;;1.40;;
74900;SDS011;63461;51.416;6.758;2022-11-15T10:14:18;4.20;;;1.50;;
74900;SDS011;63461;51.416;6.758;2022-11-15T10:22:25;4.30;;;1.10;;
74900;SDS011;63461;51.416;6.758;2022-11-15T10:27:50;3.90;;;1.13;;
74900;SDS011;63461;51.416;6.758;2022-11-15T10:30:23;2.50;;;1.50;;
74900;SDS011;63461;51.416;6.758;2022-11-15T10:32:55;4.13;;;1.50;;
74900;SDS011;63461;51.416;6.758;2022-11-15T10:37:46;3.03;;;1.67;;
74900;SDS011;63461;51.416;6.758;2022-11-15T10:40:20;3.43;;;1.10;;
74900;SDS011;63461;51.416;6.758;2022-11-15T10:42:48;3.80;;;1.30;;
74900;SDS011;63461;51.416;6.758;2022-11-15T10:45:30;3.83;;;1.10;;
74900;SDS011;63461;51.416;6.758;2022-11-15T10:48:43;3.60;;;1.80;;
74900;SDS011;63461;51.416;6.758;2022-11-15T10:50:44;7.57;;;2.10;;
74900;SDS011;63461;51.416;6.758;2022-11-15T10:53:16;5.40;;;1.70;;
74900;SDS011;63461;51.416;6.758;2022-11-15T10:55:52;4.03;;;1.60;;
74900;SDS011;63461;51.416;6.758;2022-11-15T10:58:37;4.63;;;1.40;;
74900;SDS011;63461;51.416;6.758;2022-11-15T11:01:08;2.33;;;1.33;;
74900;SDS011;63461;51.416;6.758;2022-11-15T11:03:36;3.97;;;1.63;;
74900;SDS011;63461;51.416;6.758;2022-11-15T11:06:04;6.00;;;1.50;;
74900;SDS011;63461;51.416;6.758;2022-11-15T11:08:35;3.57;;;1.13;;
74900;SDS011;63461;51.416;6.758;2022-11-15T11:11:02;1.47;;;1.00;;
74900;SDS011;63461;51.416;6.758;2022-11-15T11:21:38;3.93;;;1.43;;
74900;SDS011;63461;51.416;6.758;2022-11-15T11:24:18;4.20;;;1.60;;
74900;SDS011;63461;51.416;6.758;2022-11-15T11:29:44;2.33;;;1.20;;
74900;SDS011;63461;51.416;6.758;2022-11-15T11:38:17;4.10;;;1.00;;
74900;SDS011;63461;51.416;6.758;2022-11-15T11:40:57;5.43;;;1.50;;
74900;SDS011;63461;51.416;6.758;2022-11-15T11:43:44;4.00;;;1.30;;
74900;SDS011;63461;51.416;6.758;2022-11-15T11:49:30;2.30;;;1.00;;
74900;SDS011;63461;51.416;6.758;2022-11-15T11:52:07;5.70;;;1.20;;
74900;SDS011;63461;51.416;6.758;2022-11-15T11:54:46;7.20;;;1.30;;
74900;SDS011;63461;51.416;6.758;2022-11-15T12:00:53;3.07;;;1.07;;
74900;SDS011;63461;51.416;6.758;2022-11-15T12:06:21;1.93;;;0.83;;
74900;SDS011;63461;51.416;6.758;2022-11-15T12:14:52;2.20;;;1.10;;
74900;SDS011;63461;51.416;6.758;2022-11-15T12:17:42;4.30;;;1.10;;
74900;SDS011;63461;51.416;6.758;2022-11-15T12:20:17;4.40;;;1.27;;
74900;SDS011;63461;51.416;6.758;2022-11-15T12:22:55;2.23;;;0.80;;
74900;SDS011;63461;51.416;6.758;2022-11-15T12:25:34;2.83;;;1.20;;
74900;SDS011;63461;51.416;6.758;2022-11-15T12:31:40;4.13;;;1.53;;
74900;SDS011;63461;51.416;6.758;2022-11-15T12:34:45;2.60;;;1.30;;
74900;SDS011;63461;51.416;6.758;2022-11-15T12:45:43;2.40;;;1.10;;
74900;SDS011;63461;51.416;6.758;2022-11-15T12:50:52;3.33;;;0.90;;
74900;SDS011;63461;51.416;6.758;2022-11-15T12:58:56;2.83;;;0.93;;
74900;SDS011;63461;51.416;6.758;2022-11-15T13:06:51;7.00;;;1.10;;
74900;SDS011;63461;51.416;6.758;2022-11-15T13:12:09;3.60;;;1.27;;
74900;SDS011;63461;51.416;6.758;2022-11-15T13:19:45;4.83;;;0.97;;
74900;SDS011;63461;51.416;6.758;2022-11-15T13:22:15;3.77;;;1.10;;
74900;SDS011;63461;51.416;6.758;2022-11-15T13:25:11;4.50;;;0.93;;
74900;SDS011;63461;51.416;6.758;2022-11-15T13:27:45;7.40;;;2.23;;
74900;SDS011;63461;51.416;6.758;2022-11-15T13:30:22;2.73;;;0.90;;
74900;SDS011;63461;51.416;6.758;2022-11-15T13:33:15;7.13;;;1.30;;
74900;SDS011;63461;51.416;6.758;2022-11-15T13:35:42;6.13;;;1.20;;
74900;SDS011;63461;51.416;6.758;2022-11-15T13:38:33;4.37;;;1.30;;
74900;SDS011;63461;51.416;6.758;2022-11-15T13:43:47;2.47;;;1.00;;
74900;SDS011;63461;51.416;6.758;2022-11-15T13:46:21;8.33;;;1.30;;
74900;SDS011;63461;51.416;6.758;2022-11-15T13:48:51;5.53;;;1.30;;
74900;SDS011;63461;51.416;6.758;2022-11-15T13:53:46;6.77;;;1.60;;
74900;SDS011;63461;51.416;6.758;2022-11-15T13:56:16;10.27;;;1.53;;
74900;SDS011;63461;51.416;6.758;2022-11-15T13:58:44;9.57;;;1.47;;
74900;SDS011;63461;51.416;6.758;2022-11-15T14:01:13;4.73;;;1.17;;
74900;SDS011;63461;51.416;6.758;2022-11-15T14:04:20;5.57;;;1.03;;
74900;SDS011;63461;51.416;6.758;2022-11-15T14:06:50;5.77;;;1.00;;
74900;SDS011;63461;51.416;6.758;2022-11-15T14:11:52;5.97;;;1.20;;
74900;SDS011;63461;51.416;6.758;2022-11-15T14:14:22;5.13;;;1.47;;
74900;SDS011;63461;51.416;6.758;2022-11-15T14:16:51;3.90;;;0.90;;
74900;SDS011;63461;51.416;6.758;2022-11-15T14:22:33;5.47;;;1.00;;
74900;SDS011;63461;51.416;6.758;2022-11-15T14:27:38;5.83;;;1.33;;
74900;SDS011;63461;51.416;6.758;2022-11-15T14:30:05;3.67;;;0.93;;
74900;SDS011;63461;51.416;6.758;2022-11-15T14:32:48;3.50;;;0.90;;
74900;SDS011;63461;51.416;6.758;2022-11-15T14:35:19;5.37;;;1.00;;
74900;SDS011;63461;51.416;6.758;2022-11-15T14:37:47;8.77;;;1.23;;
74900;SDS011;63461;51.416;6.758;2022-11-15T14:40:14;7.23;;;1.30;;
74900;SDS011;63461;51.416;6.758;2022-11-15T14:42:46;5.90;;;1.27;;
74900;SDS011;63461;51.416;6.758;2022-11-15T14:45:14;8.70;;;1.37;;
74900;SDS011;63461;51.416;6.758;2022-11-15T14:47:44;12.47;;;1.53;;
74900;SDS011;63461;51.416;6.758;2022-11-15T14:50:16;8.63;;;1.93;;
74900;SDS011;63461;51.416;6.758;2022-11-15T14:52:44;6.27;;;1.57;;
74900;SDS011;63461;51.416;6.758;2022-11-15T14:55:24;7.47;;;1.77;;
74900;SDS011;63461;51.416;6.758;2022-11-15T14:57:57;6.90;;;1.40;;
74900;SDS011;63461;51.416;6.758;2022-11-15T15:00:23;9.17;;;2.27;;
74900;SDS011;63461;51.416;6.758;2022-11-15T15:02:53;11.70;;;1.70;;
74900;SDS011;63461;51.416;6.758;2022-11-15T15:05:20;10.67;;;1.87;;
74900;SDS011;63461;51.416;6.758;2022-11-15T15:08:14;10.03;;;1.73;;
74900;SDS011;63461;51.416;6.758;2022-11-15T15:10:41;7.13;;;2.33;;
74900;SDS011;63461;51.416;6.758;2022-11-15T15:13:19;8.67;;;1.50;;
74900;SDS011;63461;51.416;6.758;2022-11-15T15:15:47;4.40;;;1.33;;
74900;SDS011;63461;51.416;6.758;2022-11-15T15:18:17;8.60;;;2.07;;
74900;SDS011;63461;51.416;6.758;2022-11-15T15:20:55;4.10;;;1.50;;
74900;SDS011;63461;51.416;6.758;2022-11-15T15:23:42;7.80;;;1.40;;
74900;SDS011;63461;51.416;6.758;2022-11-15T15:26:08;3.07;;;1.53;;
74900;SDS011;63461;51.416;6.758;2022-11-15T15:28:34;4.67;;;1.63;;
74900;SDS011;63461;51.416;6.758;2022-11-15T15:31:03;4.43;;;1.70;;
74900;SDS011;63461;51.416;6.758;2022-11-15T15:33:41;6.37;;;1.70;;
74900;SDS011;63461;51.416;6.758;2022-11-15T15:36:11;2.90;;;1.53;;
74900;SDS011;63461;51.416;6.758;2022-11-15T15:38:46;16.53;;;2.20;;
74900;SDS011;63461;51.416;6.758;2022-11-15T15:41:13;8.47;;;2.10;;
74900;SDS011;63461;51.416;6.758;2022-11-15T15:43:40;19.23;;;2.23;;
74900;SDS011;63461;51.416;6.758;2022-11-15T15:46:12;11.67;;;1.90;;
74900;SDS011;63461;51.416;6.758;2022-11-15T15:48:44;8.03;;;1.97;;
74900;SDS011;63461;51.416;6.758;2022-11-15T15:51:14;13.67;;;2.40;;
74900;SDS011;63461;51.416;6.758;2022-11-15T15:53:40;7.77;;;1.80;;
74900;SDS011;63461;51.416;6.758;2022-11-15T15:56:06;10.93;;;2.00;;
74900;SDS011;63461;51.416;6.758;2022-11-15T15:58:42;23.23;;;2.80;;
74900;SDS011;63461;51.416;6.758;2022-11-15T16:01:11;16.87;;;2.40;;
74900;SDS011;63461;51.416;6.758;2022-11-15T16:03:36;5.27;;;1.80;;
74900;SDS011;63461;51.416;6.758;2022-11-15T16:06:02;3.73;;;1.40;;
74900;SDS011;63461;51.416;6.758;2022-11-15T16:08:29;6.47;;;1.97;;
74900;SDS011;63461;51.416;6.758;2022-11-15T16:10:55;11.83;;;2.20;;
74900;SDS011;63461;51.416;6.758;2022-11-15T16:13:20;6.80;;;2.10;;
74900;SDS011;63461;51.416;6.758;2022-11-15T16:15:47;6.25;;;2.10;;
74900;SDS011;63461;51.416;6.758;2022-11-15T16:18:17;4.63;;;2.10;;
74900;SDS011;63461;51.416;6.758;2022-11-15T16:20:46;4.90;;;1.70;;
74900;SDS011;63461;51.416;6.758;2022-11-15T16:23:19;3.97;;;1.50;;
74900;SDS011;63461;51.416;6.758;2022-11-15T16:28:19;5.10;;;2.10;;
74900;SDS011;63461;51.416;6.758;2022-11-15T16:30:58;5.63;;;1.70;;
74900;SDS011;63461;51.416;6.758;2022-11-15T16:33:29;4.07;;;1.83;;
74900;SDS011;63461;51.416;6.758;2022-11-15T16:35:55;4.30;;;1.50;;
74900;SDS011;63461;51.416;6.758;2022-11-15T16:38:20;6.17;;;1.70;;
74900;SDS011;63461;51.416;6.758;2022-11-15T16:40:46;4.53;;;1.70;;
74900;SDS011;63461;51.416;6.758;2022-11-15T16:43:12;7.57;;;2.00;;
74900;SDS011;63461;51.416;6.758;2022-11-15T16:45:38;4.23;;;1.63;;
74900;SDS011;63461;51.416;6.758;2022-11-15T16:48:04;4.37;;;1.60;;
74900;SDS011;63461;51.416;6.758;2022-11-15T16:50:31;3.50;;;1.60;;
74900;SDS011;63461;51.416;6.758;2022-11-15T16:53:03;4.73;;;1.80;;
74900;SDS011;63461;51.416;6.758;2022-11-15T16:55:29;4.73;;;1.90;;
74900;SDS011;63461;51.416;6.758;2022-11-15T16:57:55;3.83;;;1.60;;
74900;SDS011;63461;51.416;6.758;2022-11-15T17:00:22;7.03;;;1.80;;
74900;SDS011;63461;51.416;6.758;2022-11-15T17:02:49;5.03;;;1.70;;
74900;SDS011;63461;51.416;6.758;2022-11-15T17:05:16;2.97;;;1.60;;
74900;SDS011;63461;51.416;6.758;2022-11-15T17:07:43;2.97;;;1.50;;
74900;SDS011;63461;51.416;6.758;2022-11-15T17:10:16;5.00;;;1.57;;
74900;SDS011;63461;51.416;6.758;2022-11-15T17:12:42;2.80;;;1.60;;
74900;SDS011;63461;51.416;6.758;2022-11-15T17:15:10;3.50;;;1.80;;
74900;SDS011;63461;51.416;6.758;2022-11-15T17:17:37;3.87;;;1.77;;
74900;SDS011;63461;51.416;6.758;2022-11-15T17:20:03;4.43;;;1.50;;
74900;SDS011;63461;51.416;6.758;2022-11-15T17:22:36;3.83;;;1.80;;
74900;SDS011;63461;51.416;6.758;2022-11-15T17:25:02;3.70;;;1.80;;
74900;SDS011;63461;51.416;6.758;2022-11-15T17:27:29;5.77;;;1.80;;
74900;SDS011;63461;51.416;6.758;2022-11-15T17:29:55;4.23;;;1.53;;
74900;SDS011;63461;51.416;6.758;2022-11-15T17:32:21;2.40;;;1.33;;
74900;SDS011;63461;51.416;6.758;2022-11-15T17:34:46;3.33;;;1.60;;
74900;SDS011;63461;51.416;6.758;2022-11-15T17:37:12;2.40;;;1.60;;
74900;SDS011;63461;51.416;6.758;2022-11-15T17:39:38;3.87;;;1.90;;
74900;SDS011;63461;51.416;6.758;2022-11-15T17:42:03;4.13;;;1.83;;
74900;SDS011;63461;51.416;6.758;2022-11-15T17:44:29;3.30;;;1.63;;
74900;SDS011;63461;51.416;6.758;2022-11-15T17:46:56;3.43;;;1.67;;
74900;SDS011;63461;51.416;6.758;2022-11-15T17:49:22;4.17;;;1.80;;
74900;SDS011;63461;51.416;6.758;2022-11-15T17:51:47;3.07;;;1.50;;
74900;SDS011;63461;51.416;6.758;2022-11-15T17:54:13;2.50;;;1.43;;
74900;SDS011;63461;51.416;6.758;2022-11-15T17:56:39;3.97;;;1.40;;
74900;SDS011;63461;51.416;6.758;2022-11-15T17:59:06;3.07;;;1.70;;
74900;SDS011;63461;51.416;6.758;2022-11-15T18:01:33;2.73;;;1.80;;
74900;SDS011;63461;51.416;6.758;2022-11-15T18:04:00;3.70;;;1.80;;
74900;SDS011;63461;51.416;6.758;2022-11-15T18:06:27;5.47;;;1.60;;
74900;SDS011;63461;51.416;6.758;2022-11-15T18:08:54;5.63;;;1.90;;